createdAt,value
2022-11-26T00:02:24.879Z,23.52
2022-11-26T00:04:53.118Z,26.60
2022-11-26T00:07:25.976Z,22.55
2022-11-26T00:12:29.342Z,23.63
2022-11-26T00:14:58.664Z,21.52
2022-11-26T00:17:25.453Z,27.20
2022-11-26T00:19:52.252Z,25.67
2022-11-26T00:22:27.255Z,22.95
2022-11-26T00:24:54.884Z,25.00
2022-11-26T00:27:25.557Z,22.80
2022-11-26T00:29:53.238Z,21.95
2022-11-26T00:32:25.911Z,21.40
2022-11-26T00:34:53.868Z,26.48
2022-11-26T00:37:29.393Z,26.77
2022-11-26T00:39:57.306Z,22.98
2022-11-26T00:42:24.609Z,25.73
2022-11-26T00:44:51.437Z,22.65
2022-11-26T00:47:18.256Z,29.20
2022-11-26T00:49:45.045Z,25.02
2022-11-26T00:52:35.455Z,26.90
2022-11-26T00:55:19.550Z,26.88
2022-11-26T00:57:46.514Z,26.30
2022-11-26T01:00:26.685Z,23.85
2022-11-26T01:02:54.566Z,25.98
2022-11-26T01:05:25.014Z,30.70
2022-11-26T01:07:53.613Z,29.85
2022-11-26T01:10:25.197Z,25.38
2022-11-26T01:12:53.646Z,26.60
2022-11-26T01:15:23.975Z,24.83
2022-11-26T01:17:52.607Z,27.90
2022-11-26T01:20:27.055Z,28.00
2022-11-26T01:22:55.691Z,30.67
2022-11-26T01:25:24.288Z,27.60
2022-11-26T01:27:51.713Z,25.25
2022-11-26T01:30:26.575Z,27.48
2022-11-26T01:32:53.754Z,25.83
2022-11-26T01:35:21.860Z,24.40
2022-11-26T01:37:49.945Z,23.17
2022-11-26T01:40:25.454Z,22.42
2022-11-26T01:43:09.967Z,24.67
2022-11-26T01:45:36.877Z,28.73
2022-11-26T01:48:33.737Z,27.48
2022-11-26T01:51:11.102Z,33.60
2022-11-26T01:53:50.816Z,30.75
2022-11-26T01:56:26.862Z,30.05
2022-11-26T01:59:33.285Z,26.10
2022-11-26T02:02:01.043Z,27.73
2022-11-26T02:04:44.782Z,26.50
2022-11-26T02:07:11.655Z,25.05
2022-11-26T02:09:38.969Z,24.83
2022-11-26T02:12:05.909Z,24.77
2022-11-26T02:14:37.552Z,29.77
2022-11-26T02:17:20.655Z,22.58
2022-11-26T02:20:44.410Z,24.92
2022-11-26T02:23:34.560Z,24.05
2022-11-26T02:26:23.204Z,22.95
2022-11-26T02:29:14.859Z,24.02
2022-11-26T02:31:49.231Z,21.75
2022-11-26T02:34:36.966Z,23.55
2022-11-26T02:37:15.167Z,23.52
2022-11-26T02:39:42.364Z,26.13
2022-11-26T02:42:29.383Z,21.25
2022-11-26T02:45:05.128Z,23.13
2022-11-26T02:47:34.767Z,26.67
2022-11-26T02:50:07.800Z,28.98
2022-11-26T02:55:05.804Z,21.77
2022-11-26T02:57:39.702Z,24.77
2022-11-26T03:00:08.569Z,21.77
2022-11-26T03:02:54.655Z,28.27
2022-11-26T03:05:21.801Z,22.60
2022-11-26T03:07:52.992Z,25.13
2022-11-26T03:10:30.827Z,22.40
2022-11-26T03:12:57.820Z,20.75
2022-11-26T03:15:25.395Z,23.60
2022-11-26T03:17:52.270Z,21.52
2022-11-26T03:20:19.347Z,21.95
2022-11-26T03:22:46.140Z,21.73
2022-11-26T03:25:13.254Z,25.98
2022-11-26T03:27:40.048Z,22.33
2022-11-26T03:30:08.012Z,27.92
2022-11-26T03:32:36.153Z,21.20
2022-11-26T03:35:03.589Z,20.45
2022-11-26T03:37:30.572Z,24.55
2022-11-26T03:39:58.551Z,22.95
2022-11-26T03:42:25.599Z,19.30
2022-11-26T03:44:52.384Z,21.75
2022-11-26T03:47:19.532Z,25.13
2022-11-26T03:49:46.424Z,23.98
2022-11-26T03:52:13.200Z,21.88
2022-11-26T03:54:40.473Z,22.83
2022-11-26T03:57:07.910Z,24.77
2022-11-26T03:59:34.702Z,21.83
2022-11-26T04:02:01.720Z,22.20
2022-11-26T04:04:28.663Z,24.35
2022-11-26T04:06:55.471Z,26.05
2022-11-26T04:09:22.344Z,21.88
2022-11-26T04:11:49.190Z,25.35
2022-11-26T04:14:16.257Z,27.27
2022-11-26T04:16:43.188Z,27.50
2022-11-26T04:19:10.022Z,25.55
2022-11-26T04:21:36.899Z,21.45
2022-11-26T04:24:04.189Z,25.30
2022-11-26T04:26:31.051Z,22.42
2022-11-26T04:28:57.862Z,24.63
2022-11-26T04:31:24.769Z,29.35
2022-11-26T04:33:51.910Z,27.20
2022-11-26T04:36:18.749Z,26.17
2022-11-26T04:38:45.541Z,26.45
2022-11-26T04:41:12.310Z,26.40
2022-11-26T04:43:39.117Z,25.80
2022-11-26T04:46:06.272Z,28.27
2022-11-26T04:48:33.143Z,31.65
2022-11-26T04:51:00.097Z,30.33
2022-11-26T04:53:26.945Z,23.85
2022-11-26T04:55:53.706Z,26.67
2022-11-26T04:58:21.415Z,24.25
2022-11-26T05:00:51.297Z,27.52
2022-11-26T05:03:19.041Z,25.05
2022-11-26T05:05:47.078Z,26.17
2022-11-26T05:08:14.500Z,24.00
2022-11-26T05:10:41.544Z,22.05
2022-11-26T05:13:08.353Z,21.48
2022-11-26T05:15:35.139Z,24.85
2022-11-26T05:18:01.993Z,25.70
2022-11-26T05:20:28.771Z,23.33
2022-11-26T05:22:55.530Z,23.45
2022-11-26T05:25:22.329Z,21.15
2022-11-26T05:27:49.086Z,23.13
2022-11-26T05:30:16.203Z,23.17
2022-11-26T05:32:43.013Z,21.13
2022-11-26T05:35:09.868Z,19.88
2022-11-26T05:37:36.910Z,21.83
2022-11-26T05:40:05.447Z,24.15
2022-11-26T05:42:32.620Z,20.88
2022-11-26T05:44:59.624Z,23.48
2022-11-26T05:47:26.416Z,20.33
2022-11-26T05:49:53.426Z,29.13
2022-11-26T05:52:20.867Z,22.00
2022-11-26T05:54:47.872Z,19.73
2022-11-26T05:57:14.926Z,23.98
2022-11-26T05:59:41.901Z,22.13
2022-11-26T06:02:08.905Z,19.83
2022-11-26T06:04:35.949Z,29.55
2022-11-26T06:07:02.937Z,25.95
2022-11-26T06:09:29.744Z,21.17
2022-11-26T06:11:56.529Z,21.85
2022-11-26T06:14:23.413Z,22.08
2022-11-26T06:16:50.306Z,21.08
2022-11-26T06:19:18.305Z,24.00
2022-11-26T06:21:45.270Z,20.08
2022-11-26T06:24:12.205Z,23.60
2022-11-26T06:26:38.991Z,19.15
2022-11-26T06:29:05.770Z,18.55
2022-11-26T06:31:33.078Z,28.00
2022-11-26T06:34:00.285Z,19.80
2022-11-26T06:36:27.087Z,23.30
2022-11-26T06:38:53.850Z,27.73
2022-11-26T06:41:20.826Z,23.15
2022-11-26T06:43:47.795Z,19.10
2022-11-26T06:46:14.668Z,22.60
2022-11-26T06:48:41.568Z,20.92
2022-11-26T06:51:14.713Z,20.88
2022-11-26T06:53:41.934Z,23.10
2022-11-26T06:56:18.459Z,23.02
2022-11-26T06:58:49.894Z,25.25
2022-11-26T07:01:20.764Z,18.58
2022-11-26T07:03:47.632Z,22.60
2022-11-26T07:06:23.568Z,21.10
2022-11-26T07:08:51.968Z,22.05
2022-11-26T07:11:19.382Z,21.92
2022-11-26T07:13:46.229Z,21.83
2022-11-26T07:16:13.452Z,25.00
2022-11-26T07:18:40.548Z,23.70
2022-11-26T07:21:10.693Z,21.77
2022-11-26T07:23:40.750Z,20.73
2022-11-26T07:26:08.935Z,21.75
2022-11-26T07:28:36.294Z,18.23
2022-11-26T07:31:17.306Z,22.52
2022-11-26T07:33:45.974Z,18.23
2022-11-26T07:36:23.921Z,22.95
2022-11-26T07:38:53.795Z,20.80
2022-11-26T07:41:20.867Z,21.05
2022-11-26T07:43:48.072Z,22.17
2022-11-26T07:46:18.956Z,21.67
2022-11-26T07:48:46.194Z,16.58
2022-11-26T07:51:23.500Z,20.20
2022-11-26T07:53:51.513Z,17.75
2022-11-26T07:56:18.940Z,23.50
2022-11-26T07:58:46.475Z,24.42
2022-11-26T08:01:22.752Z,27.05
2022-11-26T08:03:51.874Z,20.63
2022-11-26T08:06:22.207Z,23.77
2022-11-26T08:08:49.503Z,28.35
2022-11-26T08:11:23.507Z,21.33
2022-11-26T08:14:01.422Z,25.40
2022-11-26T08:16:29.270Z,22.95
2022-11-26T08:19:01.970Z,29.92
2022-11-26T08:21:29.059Z,25.30
2022-11-26T08:23:56.223Z,24.48
2022-11-26T08:26:33.041Z,24.20
2022-11-26T08:29:02.020Z,24.75
2022-11-26T08:31:29.213Z,26.20
2022-11-26T08:34:00.429Z,22.45
2022-11-26T08:36:29.365Z,29.05
2022-11-26T08:38:56.963Z,25.55
2022-11-26T08:41:24.109Z,23.92
2022-11-26T08:44:06.069Z,28.13
2022-11-26T08:49:01.222Z,22.13
2022-11-26T08:51:28.119Z,23.55
2022-11-26T08:53:54.939Z,26.20
2022-11-26T08:56:21.791Z,28.60
2022-11-26T08:58:49.026Z,23.60
2022-11-26T09:01:28.468Z,21.60
2022-11-26T09:03:58.816Z,24.92
2022-11-26T09:06:29.329Z,22.85
2022-11-26T09:09:15.009Z,24.30
2022-11-26T09:11:54.064Z,26.63
2022-11-26T09:14:24.939Z,20.65
2022-11-26T09:16:54.027Z,23.77
2022-11-26T09:19:21.187Z,20.05
2022-11-26T09:21:48.142Z,23.15
2022-11-26T09:24:16.628Z,23.83
2022-11-26T09:26:44.136Z,21.05
2022-11-26T09:29:14.771Z,25.70
2022-11-26T09:32:07.427Z,22.33
2022-11-26T09:34:30.330Z,26.30
2022-11-26T09:36:57.077Z,23.70
2022-11-26T09:39:23.882Z,19.27
2022-11-26T09:42:08.570Z,18.65
2022-11-26T09:44:46.900Z,24.08
2022-11-26T09:47:23.825Z,19.58
2022-11-26T09:49:59.924Z,19.20
2022-11-26T09:52:34.641Z,21.85
2022-11-26T09:55:27.756Z,19.45
2022-11-26T09:58:42.592Z,17.13
2022-11-26T10:01:18.079Z,15.60
2022-11-26T10:03:45.068Z,21.88
2022-11-26T10:06:26.698Z,18.35
2022-11-26T10:09:30.540Z,15.93
2022-11-26T10:12:26.035Z,18.17
2022-11-26T10:15:05.029Z,16.90
2022-11-26T10:17:49.823Z,17.90
2022-11-26T10:20:51.792Z,15.77
2022-11-26T10:23:45.566Z,15.93
2022-11-26T10:26:40.899Z,16.77
2022-11-26T10:29:23.818Z,17.40
2022-11-26T10:32:00.625Z,14.57
2022-11-26T10:34:47.724Z,17.70
2022-11-26T10:37:15.986Z,14.25
2022-11-26T10:39:43.081Z,15.68
2022-11-26T10:42:23.226Z,12.48
2022-11-26T10:44:53.282Z,14.75
2022-11-26T10:47:29.489Z,9.85
2022-11-26T10:50:45.907Z,12.90
2022-11-26T10:53:13.987Z,11.13
2022-11-26T10:55:43.132Z,9.90
2022-11-26T10:58:43.748Z,15.20
2022-11-26T11:01:14.255Z,9.45
2022-11-26T11:04:08.817Z,8.95
2022-11-26T11:06:42.481Z,13.52
2022-11-26T11:09:32.501Z,16.13
2022-11-26T11:12:11.486Z,15.48
2022-11-26T11:14:46.429Z,17.30
2022-11-26T11:17:35.497Z,15.70
2022-11-26T11:20:27.642Z,19.33
2022-11-26T11:23:06.809Z,17.02
2022-11-26T11:25:36.615Z,15.93
2022-11-26T11:28:16.808Z,18.98
2022-11-26T11:30:45.219Z,16.60
2022-11-26T11:33:27.702Z,17.90
2022-11-26T11:36:00.498Z,16.90
2022-11-26T11:38:31.365Z,14.27
2022-11-26T11:41:00.114Z,22.65
2022-11-26T11:43:27.660Z,10.43
2022-11-26T11:46:33.413Z,13.52
2022-11-26T11:49:30.049Z,12.23
2022-11-26T11:52:24.512Z,14.18
2022-11-26T11:55:00.051Z,10.18
2022-11-26T11:57:54.055Z,15.00
2022-11-26T12:12:33.551Z,3.67
2022-11-26T12:15:10.514Z,4.85
2022-11-26T12:17:52.959Z,8.93
2022-11-26T12:20:31.796Z,4.30
2022-11-26T12:23:38.431Z,9.25
2022-11-26T12:30:18.292Z,6.95
2022-11-26T12:35:54.393Z,7.72
2022-11-26T12:38:44.033Z,9.02
2022-11-26T12:41:29.571Z,8.07
2022-11-26T12:44:29.711Z,9.60
2022-11-26T12:47:34.964Z,8.18
2022-11-26T12:50:29.194Z,10.20
2022-11-26T12:53:22.024Z,9.05
2022-11-26T12:56:16.680Z,10.25
2022-11-26T12:59:00.863Z,7.78
2022-11-26T13:01:28.902Z,7.22
2022-11-26T13:04:21.594Z,8.00
2022-11-26T13:06:52.976Z,7.97
2022-11-26T13:09:48.422Z,10.02
2022-11-26T13:12:39.724Z,15.25
2022-11-26T13:15:29.366Z,9.55
2022-11-26T13:17:59.080Z,21.08
2022-11-26T13:21:08.841Z,22.05
2022-11-26T13:24:18.694Z,12.77
2022-11-26T13:27:10.231Z,16.23
2022-11-26T13:30:05.617Z,11.25
2022-11-26T13:33:15.811Z,17.38
2022-11-26T13:36:10.134Z,19.55
2022-11-26T13:39:01.279Z,15.88
2022-11-26T13:41:52.266Z,16.02
2022-11-26T13:45:00.661Z,14.38
2022-11-26T13:47:56.797Z,17.10
2022-11-26T13:50:34.239Z,16.73
2022-11-26T13:53:16.888Z,14.40
2022-11-26T13:55:55.606Z,13.98
2022-11-26T13:58:40.991Z,15.80
2022-11-26T14:01:40.377Z,14.73
2022-11-26T14:04:14.858Z,10.45
2022-11-26T14:07:03.437Z,14.45
2022-11-26T14:09:42.488Z,10.88
2022-11-26T14:13:03.054Z,11.95
2022-11-26T14:15:42.050Z,12.73
2022-11-26T14:18:14.257Z,12.85
2022-11-26T14:21:02.237Z,8.13
2022-11-26T14:23:48.453Z,10.52
2022-11-26T14:26:34.519Z,19.73
2022-11-26T14:29:11.310Z,25.30
2022-11-26T14:31:46.015Z,25.63
2022-11-26T14:34:19.829Z,18.00
2022-11-26T14:37:01.732Z,11.95
2022-11-26T14:39:29.499Z,7.72
2022-11-26T14:42:05.260Z,9.70
2022-11-26T14:44:33.245Z,12.60
2022-11-26T14:47:09.421Z,14.30
2022-11-26T14:49:49.278Z,10.90
2022-11-26T14:52:30.661Z,17.00
2022-11-26T14:55:01.609Z,11.80
2022-11-26T14:57:49.825Z,17.20
2022-11-26T15:00:16.610Z,17.33
2022-11-26T15:02:48.350Z,15.05
2022-11-26T15:05:18.765Z,19.60
2022-11-26T15:07:54.599Z,21.70
2022-11-26T15:10:22.152Z,16.40
2022-11-26T15:12:51.794Z,15.90
2022-11-26T15:15:24.055Z,17.70
2022-11-26T15:18:00.734Z,17.75
2022-11-26T15:20:28.048Z,11.57
2022-11-26T15:23:01.937Z,12.85
2022-11-26T15:25:33.290Z,12.30
2022-11-26T15:28:06.050Z,14.88
2022-11-26T15:30:36.787Z,15.90
2022-11-26T15:33:10.808Z,18.38
2022-11-26T15:35:39.881Z,10.40
2022-11-26T15:38:20.753Z,13.18
2022-11-26T15:40:57.738Z,9.77
2022-11-26T15:43:44.051Z,14.45
2022-11-26T15:46:13.739Z,13.90
2022-11-26T15:48:58.533Z,14.15
2022-11-26T15:51:37.381Z,15.52
2022-11-26T15:54:22.984Z,13.63
2022-11-26T15:59:06.201Z,56.53
2022-11-26T16:02:16.378Z,32.40
2022-11-26T16:04:55.120Z,21.15
2022-11-26T16:07:30.212Z,22.45
2022-11-26T16:10:23.111Z,20.27
2022-11-26T16:13:11.365Z,30.98
2022-11-26T16:16:09.658Z,39.13
2022-11-26T16:19:04.286Z,33.10
2022-11-26T16:21:34.155Z,34.70
2022-11-26T16:24:18.366Z,31.88
2022-11-26T16:27:01.598Z,40.08
2022-11-26T16:29:29.860Z,41.83
2022-11-26T16:31:56.892Z,66.47
2022-11-26T16:34:27.062Z,59.25
2022-11-26T16:37:03.651Z,43.90
2022-11-26T16:39:37.564Z,32.95
2022-11-26T16:42:19.421Z,41.42
2022-11-26T16:44:46.315Z,37.35
2022-11-26T16:47:31.789Z,36.63
2022-11-26T16:49:58.539Z,66.53
2022-11-26T16:52:25.443Z,37.80
2022-11-26T16:54:52.669Z,44.17
2022-11-26T16:57:24.149Z,41.60
2022-11-26T17:00:01.623Z,29.70
2022-11-26T17:02:28.527Z,20.60
2022-11-26T17:04:55.347Z,23.17
2022-11-26T17:07:38.528Z,17.75
2022-11-26T17:10:06.512Z,24.27
2022-11-26T17:12:33.326Z,43.20
2022-11-26T17:15:00.291Z,20.95
2022-11-26T17:17:30.626Z,24.95
2022-11-26T17:19:57.456Z,28.83
2022-11-26T17:22:25.158Z,24.08
2022-11-26T17:24:52.054Z,30.50
2022-11-26T17:27:21.188Z,41.13
2022-11-26T17:29:49.887Z,72.03
2022-11-26T17:32:19.862Z,63.38
2022-11-26T17:34:47.335Z,51.85
2022-11-26T17:37:27.372Z,58.47
2022-11-26T17:39:55.547Z,61.35
2022-11-26T17:42:23.873Z,55.15
2022-11-26T17:44:51.993Z,54.80
2022-11-26T17:47:22.428Z,50.65
2022-11-26T17:49:49.835Z,43.88
2022-11-26T17:52:17.691Z,38.72
2022-11-26T17:54:45.710Z,33.88
2022-11-26T17:57:17.498Z,35.58
2022-11-26T17:59:44.956Z,40.28
2022-11-26T18:02:12.116Z,35.72
2022-11-26T18:04:39.901Z,42.22
2022-11-26T18:07:14.340Z,38.15
2022-11-26T18:09:43.814Z,32.15
2022-11-26T18:12:26.363Z,34.63
2022-11-26T18:14:54.216Z,33.03
2022-11-26T18:17:23.046Z,39.45
2022-11-26T18:19:50.385Z,32.13
2022-11-26T18:22:23.451Z,39.95
2022-11-26T18:24:56.800Z,36.30
2022-11-26T18:27:27.641Z,29.77
2022-11-26T18:29:54.790Z,44.42
2022-11-26T18:32:22.104Z,38.97
2022-11-26T18:34:50.579Z,186.10
2022-11-26T18:37:18.525Z,56.92
2022-11-26T18:39:45.486Z,49.58
2022-11-26T18:45:01.899Z,33.83
2022-11-26T18:47:28.765Z,38.90
2022-11-26T18:49:57.369Z,33.50
2022-11-26T18:52:24.764Z,35.17
2022-11-26T18:54:51.643Z,31.15
2022-11-26T18:57:18.566Z,35.55
2022-11-26T18:59:46.711Z,47.25
2022-11-26T19:02:15.628Z,33.33
2022-11-26T19:04:44.526Z,29.42
2022-11-26T19:07:12.656Z,28.20
2022-11-26T19:09:39.929Z,40.75
2022-11-26T19:12:07.137Z,28.80
2022-11-26T19:14:34.050Z,28.67
2022-11-26T19:17:01.019Z,31.00
2022-11-26T19:19:28.262Z,30.33
2022-11-26T19:22:00.989Z,31.35
2022-11-26T19:24:29.294Z,33.58
2022-11-26T19:26:56.411Z,23.17
2022-11-26T19:29:23.247Z,19.60
2022-11-26T19:31:50.483Z,18.55
2022-11-26T19:34:17.825Z,20.90
2022-11-26T19:36:48.862Z,18.27
2022-11-26T19:39:17.052Z,16.35
2022-11-26T19:41:44.643Z,18.05
2022-11-26T19:44:11.808Z,20.08
2022-11-26T19:46:41.070Z,30.15
2022-11-26T19:49:11.812Z,27.08
2022-11-26T19:51:39.034Z,31.13
2022-11-26T19:54:06.752Z,33.33
2022-11-26T19:56:34.628Z,31.02
2022-11-26T19:59:02.303Z,38.15
2022-11-26T20:01:32.533Z,138.43
2022-11-26T20:04:02.924Z,33.00
2022-11-26T20:06:31.755Z,38.58
2022-11-26T20:08:59.163Z,143.63
2022-11-26T20:11:27.935Z,167.07
2022-11-26T20:13:56.043Z,100.70
2022-11-26T20:16:28.852Z,99.22
2022-11-26T20:18:56.845Z,61.97
2022-11-26T20:21:32.174Z,53.40
2022-11-26T20:24:02.887Z,37.13
2022-11-26T20:26:37.168Z,42.95
2022-11-26T20:29:08.519Z,31.77
2022-11-26T20:31:39.457Z,33.63
2022-11-26T20:34:06.230Z,34.08
2022-11-26T20:36:33.050Z,31.80
2022-11-26T20:39:02.155Z,45.55
2022-11-26T20:41:29.865Z,34.83
2022-11-26T20:43:59.407Z,81.22
2022-11-26T20:46:28.011Z,81.10
2022-11-26T20:48:55.433Z,97.85
2022-11-26T20:51:23.081Z,111.90
2022-11-26T20:53:51.924Z,159.75
2022-11-26T20:56:21.082Z,99.38
2022-11-26T20:58:49.076Z,172.50
2022-11-26T21:01:25.842Z,190.93
2022-11-26T21:03:53.329Z,89.75
2022-11-26T21:06:29.650Z,97.00
2022-11-26T21:09:01.050Z,254.07
2022-11-26T21:11:28.999Z,146.27
2022-11-26T21:13:57.576Z,241.43
2022-11-26T21:16:24.443Z,259.35
2022-11-26T21:18:54.518Z,252.93
2022-11-26T21:21:22.562Z,134.15
2022-11-26T21:23:49.694Z,206.45
2022-11-26T21:26:20.869Z,149.38
2022-11-26T21:29:08.248Z,78.90
2022-11-26T21:31:36.365Z,150.25
2022-11-26T21:34:06.460Z,214.93
2022-11-26T21:36:36.077Z,208.57
2022-11-26T21:39:04.546Z,198.10
2022-11-26T21:41:33.518Z,96.47
2022-11-26T21:44:03.538Z,170.70
2022-11-26T21:46:37.598Z,187.57
2022-11-26T21:49:06.341Z,149.55
2022-11-26T21:51:33.168Z,176.95
2022-11-26T21:54:00.011Z,150.10
2022-11-26T21:56:30.104Z,158.38
2022-11-26T21:58:59.590Z,136.20
2022-11-26T22:01:37.917Z,104.38
2022-11-26T22:04:16.196Z,154.55
2022-11-26T22:06:45.018Z,113.85
2022-11-26T22:09:13.144Z,76.50
2022-11-26T22:11:42.643Z,116.45
2022-11-26T22:14:13.559Z,116.47
2022-11-26T22:16:40.379Z,129.90
2022-11-26T22:19:08.040Z,143.23
2022-11-26T22:21:40.868Z,312.88
2022-11-26T22:24:13.244Z,197.70
2022-11-26T22:26:40.031Z,148.55
2022-11-26T22:29:07.547Z,100.05
2022-11-26T22:31:37.737Z,55.33
2022-11-26T22:34:13.012Z,157.18
2022-11-26T22:36:41.338Z,190.52
2022-11-26T22:41:41.774Z,196.82
2022-11-26T22:44:09.558Z,161.75
2022-11-26T22:46:38.330Z,85.57
2022-11-26T22:49:06.314Z,84.68
2022-11-26T22:51:34.929Z,138.18
2022-11-26T22:54:07.042Z,114.28
2022-11-26T22:56:37.758Z,96.10
2022-11-26T22:59:07.255Z,132.93
2022-11-26T23:01:36.473Z,118.88
2022-11-26T23:04:11.539Z,79.13
2022-11-26T23:06:39.747Z,123.22
2022-11-26T23:09:08.318Z,134.07
2022-11-26T23:11:40.439Z,62.00
2022-11-26T23:14:09.403Z,74.33
2022-11-26T23:16:40.846Z,95.70
2022-11-26T23:19:08.014Z,96.97
2022-11-26T23:21:40.275Z,76.68
2022-11-26T23:24:07.760Z,74.18
2022-11-26T23:26:37.430Z,76.25
2022-11-26T23:29:05.434Z,52.10
2022-11-26T23:31:36.247Z,89.97
2022-11-26T23:34:04.343Z,77.60
2022-11-26T23:36:32.376Z,86.97
2022-11-26T23:39:01.339Z,61.85
2022-11-26T23:41:29.125Z,65.20
2022-11-26T23:43:56.098Z,68.18
2022-11-26T23:46:26.850Z,77.63
2022-11-26T23:48:54.737Z,39.33
2022-11-26T23:51:25.449Z,96.10
2022-11-26T23:53:53.612Z,45.25
2022-11-26T23:56:30.411Z,55.97
2022-11-26T23:59:01.792Z,64.95
